Terminal Aerodrome Forecast
Issued by NWS Atlanta, GA

Home | Current Version | Previous Version | Text Only | Print | Product List | Glossary On
Versions: 1 2 3 4 5 6 7 8 9 10 11 12 13 14
162
FTUS42 KFFC 091720
TAFCSG
TAF
KCSG 091720Z 0918/1018 29014G22KT P6SM BKN060
     FM100000 30010KT P6SM SCT050
      TEMPO 1000/1003 BKN050
     FM101500 30012G22KT P6SM SKC=

USA.gov is the U.S. government's official web portal to all federal, state and local government web resources and services.